LJMB/MBX METAR and TAF weather

Enter ICAO airport designator
Station Type Date Time Source
LJMB METAR 2022/12/04 12:00 UTC NOAA

LJMB 041200Z 02005KT 5000 -RA BR OVC004 04/03 Q1019


Station Type Date Time Source
LJMB Decoded METAR 2022/12/04 12:00 UTC NOAA

Maribor / Slivnica, Slovenia (LJMB) 46-29N 015-41E 265M
Dec 04, 2022 - 07:00 AM EST / 2022.12.04 1200 UTC
Wind: from the NNE (020 degrees) at 6 MPH (5 KT):0
Visibility: 3 mile(s):0
Sky conditions: overcast
Weather: light rain; mist
Temperature: 39 F (4 C)
Dew Point: 37 F (3 C)
Relative Humidity: 93%
Pressure (altimeter): 30.09 in. Hg (1019 hPa)
ob: LJMB 041200Z 02005KT 5000 -RA BR OVC004 04/03 Q1019
cycle: 12

Station Type Date Time Source
LJMB TAF 2022/12/04 12:06 UTC NOAA

TAF LJMB 041100Z 0412/0512 36006KT 5000 BR OVC007
TEMPO 0412/0422 3500 -RA BR OVC004
BECMG 0504/0506 FEW010 SCT015
TEMPO 0507/0512 21010KT -RA FEW008 BKN012

Example: see airport list